createdAt,value
2024-02-10T00:02:17.303Z,11.86
2024-02-10T00:04:44.200Z,11.88
2024-02-10T00:07:11.196Z,11.90
2024-02-10T00:09:38.844Z,11.90
2024-02-10T00:12:06.633Z,11.93
2024-02-10T00:14:35.430Z,11.87
2024-02-10T00:17:04.486Z,11.88
2024-02-10T00:19:31.039Z,11.87
2024-02-10T00:21:58.047Z,11.90
2024-02-10T00:24:27.616Z,11.94
2024-02-10T00:26:54.136Z,11.97
2024-02-10T00:29:23.413Z,11.98
2024-02-10T00:31:49.963Z,11.99
2024-02-10T00:34:16.638Z,12.00
2024-02-10T00:36:43.324Z,11.99
2024-02-10T00:39:11.725Z,11.97
2024-02-10T00:41:39.894Z,11.98
2024-02-10T00:44:06.399Z,11.96
2024-02-10T00:46:33.069Z,11.97
2024-02-10T00:48:59.792Z,11.97
2024-02-10T00:51:28.358Z,11.98
2024-02-10T00:53:54.994Z,11.98
2024-02-10T00:56:21.504Z,12.01
2024-02-10T00:58:49.447Z,12.01
2024-02-10T01:01:21.553Z,11.98
2024-02-10T01:03:50.230Z,11.97
2024-02-10T01:06:21.340Z,12.00
2024-02-10T01:08:50.208Z,11.96
2024-02-10T01:11:19.311Z,11.93
2024-02-10T01:13:47.121Z,11.94
2024-02-10T01:16:16.890Z,11.92
2024-02-10T01:18:45.025Z,11.89
2024-02-10T01:21:12.100Z,11.86
2024-02-10T01:23:43.377Z,11.89
2024-02-10T01:26:13.325Z,11.89
2024-02-10T01:28:45.722Z,11.88
2024-02-10T01:33:44.301Z,11.87
2024-02-10T01:36:11.929Z,11.82
2024-02-10T01:38:44.193Z,11.82
2024-02-10T01:41:12.671Z,11.82
2024-02-10T01:43:40.170Z,11.83
2024-02-10T01:46:08.195Z,11.83
2024-02-10T01:48:35.666Z,11.81
2024-02-10T01:51:02.701Z,11.81
2024-02-10T01:53:29.465Z,11.82
2024-02-10T01:55:56.506Z,11.82
2024-02-10T01:58:24.441Z,11.80
2024-02-10T02:00:50.964Z,11.80
2024-02-10T02:03:17.533Z,11.81
2024-02-10T02:05:45.174Z,11.80
2024-02-10T02:08:12.293Z,11.78
2024-02-10T02:10:39.025Z,11.79
2024-02-10T02:13:06.551Z,11.80
2024-02-10T02:15:33.671Z,11.82
2024-02-10T02:18:00.990Z,11.80
2024-02-10T02:20:29.596Z,11.81
2024-02-10T02:22:56.785Z,11.80
2024-02-10T02:25:24.515Z,11.82
2024-02-10T02:27:51.120Z,11.81
2024-02-10T02:30:17.900Z,11.82
2024-02-10T02:32:44.855Z,11.82
2024-02-10T02:35:11.637Z,11.85
2024-02-10T02:37:42.982Z,11.86
2024-02-10T02:40:11.361Z,11.89
2024-02-10T02:42:38.182Z,11.89
2024-02-10T02:45:07.387Z,11.93
2024-02-10T02:47:35.904Z,11.92
2024-02-10T02:50:02.879Z,11.95
2024-02-10T02:52:31.455Z,11.93
2024-02-10T02:55:00.518Z,11.94
2024-02-10T02:57:27.268Z,11.94
2024-02-10T02:59:53.766Z,11.94
2024-02-10T03:02:20.396Z,11.95
2024-02-10T03:04:47.061Z,11.94
2024-02-10T03:07:19.581Z,11.93
2024-02-10T03:09:46.867Z,11.92
2024-02-10T03:12:13.437Z,11.87
2024-02-10T03:14:41.350Z,11.84
2024-02-10T03:17:12.097Z,11.83
2024-02-10T03:19:38.713Z,11.79
2024-02-10T03:22:06.942Z,11.75
2024-02-10T03:24:34.531Z,11.73
2024-02-10T03:27:04.178Z,11.70
2024-02-10T03:29:31.104Z,11.70
2024-02-10T03:31:57.651Z,11.68
2024-02-10T03:34:24.330Z,11.65
2024-02-10T03:36:50.838Z,11.67
2024-02-10T03:39:17.825Z,11.66
2024-02-10T03:41:44.260Z,11.66
2024-02-10T03:44:10.705Z,11.66
2024-02-10T03:46:37.262Z,11.63
2024-02-10T03:49:03.789Z,11.59
2024-02-10T03:51:30.927Z,11.57
2024-02-10T03:53:57.401Z,11.54
2024-02-10T03:56:25.110Z,11.51
2024-02-10T03:58:51.980Z,11.48
2024-02-10T04:01:18.608Z,11.48
2024-02-10T04:03:46.507Z,11.45
2024-02-10T04:06:16.903Z,11.48
2024-02-10T04:08:47.349Z,11.48
2024-02-10T04:11:15.036Z,11.50
2024-02-10T04:13:43.112Z,11.51
2024-02-10T04:16:13.662Z,11.51
2024-02-10T04:18:42.096Z,11.52
2024-02-10T04:21:09.651Z,11.54
2024-02-10T04:23:38.700Z,11.52
2024-02-10T04:26:08.187Z,11.52
2024-02-10T04:28:35.053Z,11.54
2024-02-10T04:31:01.540Z,11.55
2024-02-10T04:33:28.076Z,11.56
2024-02-10T04:35:54.600Z,11.58
2024-02-10T04:38:23.158Z,11.59
2024-02-10T04:40:49.711Z,11.58
2024-02-10T04:43:18.671Z,11.60
2024-02-10T04:45:45.569Z,11.61
2024-02-10T04:48:14.970Z,11.63
2024-02-10T04:50:42.386Z,11.66
2024-02-10T04:53:09.194Z,11.67
2024-02-10T04:55:37.719Z,11.69
2024-02-10T04:58:04.711Z,11.68
2024-02-10T05:00:31.164Z,11.70
2024-02-10T05:02:57.633Z,11.69
2024-02-10T05:05:24.343Z,11.69
2024-02-10T05:07:54.670Z,11.71
2024-02-10T05:10:21.600Z,11.72
2024-02-10T05:12:49.169Z,11.72
2024-02-10T05:15:19.789Z,11.71
2024-02-10T05:17:50.147Z,11.72
2024-02-10T05:20:24.766Z,11.76
2024-02-10T05:22:59.477Z,11.75
2024-02-10T05:25:28.744Z,11.68
2024-02-10T05:28:02.762Z,11.71
2024-02-10T05:30:29.873Z,11.70
2024-02-10T05:33:05.934Z,11.69
2024-02-10T05:35:33.248Z,11.71
2024-02-10T05:38:03.958Z,11.68
2024-02-10T05:40:31.559Z,11.66
2024-02-10T05:43:00.523Z,11.65
2024-02-10T05:45:27.516Z,11.68
2024-02-10T05:47:54.177Z,11.66
2024-02-10T05:50:24.327Z,11.66
2024-02-10T05:52:52.590Z,11.66
2024-02-10T05:55:22.587Z,11.68
2024-02-10T05:57:49.456Z,11.66
2024-02-10T06:00:16.869Z,11.65
2024-02-10T06:02:43.453Z,11.64
2024-02-10T06:05:17.217Z,11.62
2024-02-10T06:07:44.472Z,11.61
2024-02-10T06:10:15.413Z,11.58
2024-02-10T06:12:53.017Z,11.63
2024-02-10T06:15:20.758Z,11.56
2024-02-10T06:17:53.952Z,11.58
2024-02-10T06:20:23.996Z,11.54
2024-02-10T06:22:54.207Z,11.58
2024-02-10T06:25:25.978Z,11.58
2024-02-10T06:27:58.286Z,11.59
2024-02-10T06:30:29.409Z,11.59
2024-02-10T06:32:59.336Z,11.58
2024-02-10T06:35:26.993Z,11.57
2024-02-10T06:37:55.576Z,11.59
2024-02-10T06:40:23.912Z,11.59
2024-02-10T06:42:52.667Z,11.59
2024-02-10T06:45:22.278Z,11.59
2024-02-10T06:47:49.310Z,11.60
2024-02-10T06:50:16.218Z,11.62
2024-02-10T06:52:43.756Z,11.65
2024-02-10T06:55:13.694Z,11.63
2024-02-10T06:57:42.932Z,11.61
2024-02-10T07:00:16.956Z,11.62
2024-02-10T07:02:45.183Z,11.55
2024-02-10T07:05:14.192Z,11.56
2024-02-10T07:07:43.038Z,11.54
2024-02-10T07:10:16.156Z,11.59
2024-02-10T07:12:47.282Z,11.54
2024-02-10T07:15:18.565Z,11.52
2024-02-10T07:17:51.490Z,11.52
2024-02-10T07:20:25.139Z,11.47
2024-02-10T07:22:56.336Z,11.45
2024-02-10T07:25:27.800Z,11.47
2024-02-10T07:28:01.993Z,11.44
2024-02-10T07:30:30.537Z,11.41
2024-02-10T07:33:04.805Z,11.37
2024-02-10T07:35:32.687Z,11.32
2024-02-10T07:37:59.715Z,11.31
2024-02-10T07:40:26.299Z,11.31
2024-02-10T07:42:53.673Z,11.31
2024-02-10T07:45:21.159Z,11.32
2024-02-10T07:47:48.047Z,11.34
2024-02-10T07:50:15.517Z,11.35
2024-02-10T07:52:43.352Z,11.38
2024-02-10T07:55:14.257Z,11.41
2024-02-10T07:57:40.810Z,11.43
2024-02-10T08:00:11.014Z,11.44
2024-02-10T08:02:38.525Z,11.46
2024-02-10T08:05:06.179Z,11.45
2024-02-10T08:07:34.062Z,11.45
2024-02-10T08:10:01.880Z,11.48
2024-02-10T08:12:28.364Z,11.48
2024-02-10T08:14:56.830Z,11.46
2024-02-10T08:17:27.830Z,11.45
2024-02-10T08:19:58.173Z,11.45
2024-02-10T08:22:32.403Z,11.49
2024-02-10T08:25:00.421Z,11.48
2024-02-10T08:27:27.752Z,11.53
2024-02-10T08:29:55.226Z,11.55
2024-02-10T08:32:22.105Z,11.56
2024-02-10T08:34:49.607Z,11.62
2024-02-10T08:37:16.467Z,11.66
2024-02-10T08:39:44.942Z,11.72
2024-02-10T08:42:12.541Z,11.77
2024-02-10T08:44:39.118Z,11.82
2024-02-10T08:47:06.885Z,11.89
2024-02-10T08:49:36.187Z,11.97
2024-02-10T08:52:17.588Z,12.04
2024-02-10T08:54:45.122Z,12.00
2024-02-10T08:57:11.835Z,12.04
2024-02-10T08:59:42.597Z,12.05
2024-02-10T09:02:09.642Z,12.06
2024-02-10T09:04:39.935Z,12.09
2024-02-10T09:07:08.074Z,12.13
2024-02-10T09:09:35.159Z,12.13
2024-02-10T09:12:01.843Z,12.16
2024-02-10T09:14:28.456Z,12.22
2024-02-10T09:16:54.980Z,12.29
2024-02-10T09:19:21.582Z,12.34
2024-02-10T09:21:55.391Z,12.39
2024-02-10T09:24:26.233Z,12.45
2024-02-10T09:26:54.273Z,12.44
2024-02-10T09:29:20.714Z,12.47
2024-02-10T09:31:48.068Z,12.50
2024-02-10T09:34:15.555Z,12.50
2024-02-10T09:36:45.502Z,12.59
2024-02-10T09:39:17.128Z,12.61
2024-02-10T09:41:43.717Z,12.71
2024-02-10T09:44:12.055Z,12.68
2024-02-10T09:46:39.681Z,12.67
2024-02-10T09:49:09.886Z,12.72
2024-02-10T09:51:42.213Z,12.72
2024-02-10T09:54:15.019Z,12.81
2024-02-10T09:56:44.290Z,12.83
2024-02-10T09:59:17.533Z,12.85
2024-02-10T10:01:45.344Z,12.79
2024-02-10T10:04:12.498Z,12.83
2024-02-10T10:06:47.942Z,12.81
2024-02-10T10:09:19.206Z,12.77
2024-02-10T10:11:46.863Z,12.79
2024-02-10T10:14:18.075Z,12.80
2024-02-10T10:17:03.916Z,12.91
2024-02-10T10:19:31.239Z,12.83
2024-02-10T10:21:59.057Z,12.82
2024-02-10T10:24:29.840Z,12.95
2024-02-10T10:27:00.622Z,12.95
2024-02-10T10:29:30.217Z,12.93
2024-02-10T10:32:00.888Z,12.93
2024-02-10T10:34:30.839Z,12.95
2024-02-10T10:37:02.928Z,12.93
2024-02-10T10:39:32.450Z,13.01
2024-02-10T10:41:59.935Z,13.02
2024-02-10T10:44:29.359Z,13.08
2024-02-10T10:47:00.608Z,13.15
2024-02-10T10:49:27.212Z,13.19
2024-02-10T10:52:00.737Z,13.19
2024-02-10T10:54:34.619Z,13.26
2024-02-10T10:57:04.028Z,13.30
2024-02-10T10:59:36.798Z,13.34
2024-02-10T11:02:09.443Z,13.29
2024-02-10T11:04:36.352Z,13.29
2024-02-10T11:07:14.636Z,13.39
2024-02-10T11:09:53.818Z,13.40
2024-02-10T11:12:20.470Z,13.40
2024-02-10T11:14:57.721Z,13.55
2024-02-10T11:17:25.907Z,13.52
2024-02-10T11:20:06.360Z,13.65
2024-02-10T11:22:41.706Z,13.69
2024-02-10T11:25:16.596Z,13.68
2024-02-10T11:27:47.817Z,13.68
2024-02-10T11:30:14.419Z,13.74
2024-02-10T11:32:49.188Z,13.77
2024-02-10T11:35:16.069Z,13.82
2024-02-10T11:37:42.883Z,13.82
2024-02-10T11:40:12.998Z,13.78
2024-02-10T11:42:40.317Z,13.84
2024-02-10T11:45:11.335Z,13.88
2024-02-10T11:47:38.339Z,13.88
2024-02-10T11:50:05.908Z,13.86
2024-02-10T11:52:33.545Z,13.94
2024-02-10T11:55:00.176Z,13.99
2024-02-10T11:57:28.562Z,14.05
2024-02-10T11:59:56.927Z,14.15
2024-02-10T12:02:24.378Z,14.21
2024-02-10T12:04:52.203Z,14.26
2024-02-10T12:07:19.332Z,14.20
2024-02-10T12:09:45.971Z,14.28
2024-02-10T12:12:15.120Z,14.37
2024-02-10T12:14:41.823Z,14.49
2024-02-10T12:17:08.426Z,14.54
2024-02-10T12:19:41.766Z,14.65
2024-02-10T12:22:11.010Z,14.59
2024-02-10T12:24:42.722Z,14.62
2024-02-10T12:27:09.190Z,14.64
2024-02-10T12:29:39.335Z,14.74
2024-02-10T12:32:06.929Z,14.72
2024-02-10T12:34:33.558Z,14.66
2024-02-10T12:37:00.214Z,14.60
2024-02-10T12:39:26.770Z,14.60
2024-02-10T12:41:54.585Z,14.56
2024-02-10T12:44:21.206Z,14.56
2024-02-10T12:46:47.726Z,14.56
2024-02-10T12:49:14.744Z,14.47
2024-02-10T12:51:41.910Z,14.47
2024-02-10T12:54:11.737Z,14.37
2024-02-10T12:56:39.285Z,14.35
2024-02-10T12:59:08.370Z,14.35
2024-02-10T13:01:35.036Z,14.30
2024-02-10T13:04:04.228Z,14.28
2024-02-10T13:06:33.986Z,14.31
2024-02-10T13:09:00.626Z,14.28
2024-02-10T13:11:27.511Z,14.27
2024-02-10T13:13:56.441Z,14.32
2024-02-10T13:16:23.431Z,14.30
2024-02-10T13:18:50.144Z,14.28
2024-02-10T13:21:19.017Z,14.30
2024-02-10T13:23:45.655Z,14.30
2024-02-10T13:26:15.083Z,14.30
2024-02-10T13:28:46.428Z,14.26
2024-02-10T13:31:13.871Z,14.29
2024-02-10T13:33:41.985Z,14.34
2024-02-10T13:36:22.231Z,14.39
2024-02-10T13:39:07.309Z,14.36
2024-02-10T13:41:52.152Z,14.35
2024-02-10T13:44:37.111Z,14.33
2024-02-10T13:47:22.092Z,14.32
2024-02-10T13:50:06.813Z,14.34
2024-02-10T13:52:51.732Z,14.40
2024-02-10T13:55:36.594Z,14.37
2024-02-10T13:58:12.185Z,14.34
2024-02-10T14:00:45.370Z,14.41
2024-02-10T14:03:14.436Z,14.32
2024-02-10T14:05:48.706Z,14.43
2024-02-10T14:08:16.367Z,14.46
2024-02-10T14:10:56.998Z,14.47
2024-02-10T14:13:26.989Z,14.48
2024-02-10T14:15:58.354Z,14.46
2024-02-10T14:18:30.485Z,14.45
2024-02-10T14:21:24.214Z,14.47
2024-02-10T14:23:50.778Z,14.47
2024-02-10T14:26:26.454Z,14.41
2024-02-10T14:28:56.650Z,14.46
2024-02-10T14:31:23.738Z,14.48
2024-02-10T14:33:58.868Z,14.52
2024-02-10T14:36:39.239Z,14.50
2024-02-10T14:39:14.595Z,14.56
2024-02-10T14:41:42.964Z,14.53
2024-02-10T14:44:11.353Z,14.51
2024-02-10T14:46:43.976Z,14.56
2024-02-10T14:49:15.171Z,14.59
2024-02-10T14:51:44.292Z,14.57
2024-02-10T14:54:11.131Z,14.53
2024-02-10T14:56:39.662Z,14.46
2024-02-10T14:59:07.093Z,14.48
2024-02-10T15:01:35.537Z,14.51
2024-02-10T15:04:06.960Z,14.53
2024-02-10T15:06:36.142Z,14.54
2024-02-10T15:09:09.333Z,14.55
2024-02-10T15:11:38.122Z,14.55
2024-02-10T15:14:08.264Z,14.51
2024-02-10T15:16:35.414Z,14.47
2024-02-10T15:19:02.102Z,14.46
2024-02-10T15:21:33.942Z,14.43
2024-02-10T15:24:01.057Z,14.42
2024-02-10T15:26:27.994Z,14.40
2024-02-10T15:28:55.016Z,14.37
2024-02-10T15:31:22.964Z,14.34
2024-02-10T15:33:57.377Z,14.29
2024-02-10T15:36:28.349Z,14.25
2024-02-10T15:39:02.523Z,14.20
2024-02-10T15:41:29.340Z,14.15
2024-02-10T15:43:56.453Z,14.13
2024-02-10T15:46:23.268Z,14.11
2024-02-10T15:48:54.633Z,14.08
2024-02-10T15:51:22.144Z,14.05
2024-02-10T15:53:48.740Z,14.03
2024-02-10T15:56:15.195Z,14.00
2024-02-10T15:58:50.634Z,13.98
2024-02-10T16:01:18.788Z,13.98
2024-02-10T16:03:45.545Z,13.95
2024-02-10T16:06:12.314Z,13.92
2024-02-10T16:08:45.739Z,13.95
2024-02-10T16:11:13.199Z,13.89
2024-02-10T16:13:40.870Z,13.84
2024-02-10T16:16:09.047Z,13.84
2024-02-10T16:18:36.444Z,13.81
2024-02-10T16:21:03.012Z,13.78
2024-02-10T16:23:29.415Z,13.75
2024-02-10T16:25:58.194Z,13.73
2024-02-10T16:28:24.983Z,13.69
2024-02-10T16:30:51.577Z,13.65
2024-02-10T16:33:18.728Z,13.60
2024-02-10T16:35:47.127Z,13.55
2024-02-10T16:38:13.988Z,13.53
2024-02-10T16:40:41.260Z,13.54
2024-02-10T16:43:08.964Z,13.50
2024-02-10T16:45:36.558Z,13.46
2024-02-10T16:48:04.579Z,13.42
2024-02-10T16:50:31.859Z,13.42
2024-02-10T16:53:06.307Z,13.39
2024-02-10T16:55:38.256Z,13.36
2024-02-10T16:58:09.068Z,13.32
2024-02-10T17:00:39.315Z,13.32
2024-02-10T17:03:09.038Z,13.24
2024-02-10T17:05:50.013Z,13.25
2024-02-10T17:08:16.864Z,13.17
2024-02-10T17:10:43.386Z,13.14
2024-02-10T17:13:10.924Z,13.11
2024-02-10T17:15:42.209Z,13.10
2024-02-10T17:18:16.394Z,13.02
2024-02-10T17:20:59.226Z,12.97
2024-02-10T17:23:26.189Z,12.94
2024-02-10T17:25:57.409Z,12.96
2024-02-10T17:28:25.083Z,12.91
2024-02-10T17:30:52.505Z,12.89
2024-02-10T17:33:23.552Z,12.89
2024-02-10T17:35:51.970Z,12.89
2024-02-10T17:38:22.848Z,12.88
2024-02-10T17:40:49.634Z,12.89
2024-02-10T17:43:21.787Z,12.93
2024-02-10T17:45:49.331Z,12.89
2024-02-10T17:48:23.682Z,12.90
2024-02-10T17:50:51.697Z,12.91
2024-02-10T17:53:29.139Z,12.87
2024-02-10T17:55:57.359Z,12.85
2024-02-10T17:58:30.249Z,12.84
2024-02-10T18:00:57.720Z,12.83
2024-02-10T18:03:25.626Z,12.84
2024-02-10T18:05:57.283Z,12.84
2024-02-10T18:08:24.899Z,12.87
2024-02-10T18:10:51.604Z,12.82
2024-02-10T18:13:18.565Z,12.79
2024-02-10T18:15:45.142Z,12.78
2024-02-10T18:18:12.270Z,12.77
2024-02-10T18:20:39.383Z,12.76
2024-02-10T18:23:11.300Z,12.80
2024-02-10T18:25:42.288Z,12.75
2024-02-10T18:28:14.831Z,12.72
2024-02-10T18:30:45.944Z,12.71
2024-02-10T18:33:14.690Z,12.72
2024-02-10T18:35:43.719Z,12.73
2024-02-10T18:38:12.562Z,12.74
2024-02-10T18:40:39.170Z,12.75
2024-02-10T18:43:05.596Z,12.74
2024-02-10T18:45:35.660Z,12.74
2024-02-10T18:48:03.163Z,12.74
2024-02-10T18:50:29.729Z,12.75
2024-02-10T18:52:58.319Z,12.73
2024-02-10T18:55:25.633Z,12.72
2024-02-10T18:57:52.154Z,12.70
2024-02-10T19:00:20.813Z,12.73
2024-02-10T19:02:50.669Z,12.74
2024-02-10T19:05:18.607Z,12.71
2024-02-10T19:07:46.399Z,12.70
2024-02-10T19:10:13.726Z,12.65
2024-02-10T19:12:41.345Z,12.65
2024-02-10T19:15:08.654Z,12.62
2024-02-10T19:17:41.105Z,12.63
2024-02-10T19:20:13.003Z,12.59
2024-02-10T19:22:40.224Z,12.57
2024-02-10T19:25:08.410Z,12.52
2024-02-10T19:27:36.671Z,12.55
2024-02-10T19:30:10.239Z,12.51
2024-02-10T19:32:41.452Z,12.53
2024-02-10T19:35:35.590Z,12.48
2024-02-10T19:38:02.579Z,12.51
2024-02-10T19:40:29.126Z,12.51
2024-02-10T19:42:56.925Z,12.50
2024-02-10T19:45:26.462Z,12.48
2024-02-10T19:47:54.105Z,12.46
2024-02-10T19:50:21.285Z,12.41
2024-02-10T19:52:48.301Z,12.42
2024-02-10T19:55:16.269Z,12.40
2024-02-10T19:57:43.094Z,12.37
2024-02-10T20:00:16.726Z,12.39
2024-02-10T20:02:43.712Z,12.36
2024-02-10T20:05:10.882Z,12.34
2024-02-10T20:07:39.211Z,12.34
2024-02-10T20:10:06.249Z,12.36
2024-02-10T20:12:32.840Z,12.37
2024-02-10T20:15:00.768Z,12.34
2024-02-10T20:17:32.166Z,12.31
2024-02-10T20:20:17.762Z,12.29
2024-02-10T20:22:45.525Z,12.28
2024-02-10T20:25:13.446Z,12.31
2024-02-10T20:27:42.896Z,12.34
2024-02-10T20:30:11.102Z,12.34
2024-02-10T20:32:37.703Z,12.36
2024-02-10T20:35:04.543Z,12.35
2024-02-10T20:37:31.312Z,12.33
2024-02-10T20:39:57.887Z,12.35
2024-02-10T20:42:27.333Z,12.35
2024-02-10T20:44:53.914Z,12.37
2024-02-10T20:47:20.498Z,12.37
2024-02-10T20:49:47.503Z,12.38
2024-02-10T20:52:15.220Z,12.37
2024-02-10T20:54:43.801Z,12.38
2024-02-10T20:57:12.047Z,12.36
2024-02-10T20:59:39.464Z,12.35
2024-02-10T21:02:07.847Z,12.35
2024-02-10T21:04:35.089Z,12.34
2024-02-10T21:07:04.356Z,12.32
2024-02-10T21:09:30.901Z,12.32
2024-02-10T21:12:00.065Z,12.31
2024-02-10T21:14:27.998Z,12.31
2024-02-10T21:16:58.216Z,12.33
2024-02-10T21:19:25.811Z,12.32
2024-02-10T21:21:52.312Z,12.32
2024-02-10T21:24:22.350Z,12.30
2024-02-10T21:26:50.055Z,12.29
2024-02-10T21:31:43.196Z,12.29
2024-02-10T21:34:10.138Z,12.28
2024-02-10T21:36:36.848Z,12.27
2024-02-10T21:39:11.393Z,12.28
2024-02-10T21:41:38.629Z,12.28
2024-02-10T21:44:06.072Z,12.28
2024-02-10T21:46:32.646Z,12.28
2024-02-10T21:48:59.530Z,12.27
2024-02-10T21:51:26.140Z,12.27
2024-02-10T21:53:55.729Z,12.30
2024-02-10T21:56:22.180Z,12.30
2024-02-10T21:58:51.604Z,12.31
2024-02-10T22:01:19.362Z,12.28
2024-02-10T22:03:46.104Z,12.27
2024-02-10T22:06:12.819Z,12.29
2024-02-10T22:08:39.401Z,12.27
2024-02-10T22:11:06.424Z,12.26
2024-02-10T22:13:33.254Z,12.27
2024-02-10T22:16:00.915Z,12.25
2024-02-10T22:18:30.364Z,12.24
2024-02-10T22:20:58.413Z,12.21
2024-02-10T22:23:24.841Z,12.17
2024-02-10T22:25:51.540Z,12.20
2024-02-10T22:28:17.993Z,12.20
2024-02-10T22:30:44.456Z,12.19
2024-02-10T22:33:11.532Z,12.20
2024-02-10T22:35:38.407Z,12.22
2024-02-10T22:38:08.079Z,12.23
2024-02-10T22:40:35.221Z,12.23
2024-02-10T22:43:01.865Z,12.23
2024-02-10T22:45:28.387Z,12.24
2024-02-10T22:47:55.588Z,12.27
2024-02-10T22:50:23.125Z,12.25
2024-02-10T22:52:51.030Z,12.24
2024-02-10T22:55:18.607Z,12.25
2024-02-10T22:57:45.191Z,12.24
2024-02-10T23:00:29.826Z,12.23
2024-02-10T23:02:56.433Z,12.22
2024-02-10T23:05:25.425Z,12.20
2024-02-10T23:07:51.986Z,12.17
2024-02-10T23:10:18.484Z,12.16
2024-02-10T23:12:51.103Z,12.17
2024-02-10T23:15:22.919Z,12.17
2024-02-10T23:17:50.422Z,12.17
2024-02-10T23:20:18.373Z,12.19
2024-02-10T23:22:45.012Z,12.21
2024-02-10T23:25:12.617Z,12.19
2024-02-10T23:27:40.519Z,12.19
2024-02-10T23:30:09.259Z,12.18
2024-02-10T23:32:39.210Z,12.16
2024-02-10T23:35:10.088Z,12.19
2024-02-10T23:37:38.255Z,12.17
2024-02-10T23:40:14.359Z,12.17
2024-02-10T23:42:43.546Z,12.18
2024-02-10T23:45:10.708Z,12.13
2024-02-10T23:47:37.218Z,12.16
2024-02-10T23:50:06.371Z,12.16
2024-02-10T23:52:32.991Z,12.13
2024-02-10T23:54:59.502Z,12.10
2024-02-10T23:57:25.985Z,12.08
2024-02-10T23:59:52.524Z,12.08
